createdAt,value
2023-01-13T00:01:11.712Z,19.77
2023-01-13T00:04:18.314Z,18.80
2023-01-13T00:06:47.321Z,18.90
2023-01-13T00:09:15.571Z,27.73
2023-01-13T00:11:43.786Z,18.60
2023-01-13T00:14:12.451Z,31.33
2023-01-13T00:16:40.729Z,26.27
2023-01-13T00:19:09.091Z,19.87
2023-01-13T00:21:39.340Z,18.37
2023-01-13T00:24:08.199Z,19.10
2023-01-13T00:26:36.472Z,33.50
2023-01-13T00:29:05.110Z,19.47
2023-01-13T00:31:33.391Z,23.20
2023-01-13T00:34:02.750Z,23.17
2023-01-13T00:36:32.380Z,25.23
2023-01-13T00:39:01.990Z,22.40
2023-01-13T00:41:50.510Z,30.03
2023-01-13T00:44:18.305Z,19.10
2023-01-13T00:46:46.607Z,26.63
2023-01-13T00:49:15.381Z,23.40
2023-01-13T00:51:43.858Z,23.20
2023-01-13T00:54:13.838Z,24.07
2023-01-13T01:01:22.427Z,17.90
2023-01-13T01:03:51.006Z,23.67
2023-01-13T01:06:21.366Z,25.63
2023-01-13T01:08:49.805Z,19.80
2023-01-13T01:15:57.513Z,23.67
2023-01-13T01:18:25.771Z,19.73
2023-01-13T01:20:53.996Z,17.27
2023-01-13T01:23:22.791Z,23.40
2023-01-13T01:25:51.065Z,13.27
2023-01-13T01:28:20.672Z,19.80
2023-01-13T01:30:49.489Z,25.23
2023-01-13T01:33:19.043Z,20.27
2023-01-13T01:35:47.273Z,17.90
2023-01-13T01:38:15.773Z,18.23
2023-01-13T01:40:43.986Z,15.53
2023-01-13T01:43:39.891Z,22.13
2023-01-13T01:46:09.582Z,10.97
2023-01-13T01:48:43.479Z,23.23
2023-01-13T01:51:14.522Z,20.43
2023-01-13T01:53:43.191Z,18.30
2023-01-13T01:56:12.406Z,14.13
2023-01-13T01:58:46.209Z,23.40
2023-01-13T02:01:44.993Z,15.07
2023-01-13T02:04:18.637Z,18.10
2023-01-13T02:11:51.431Z,15.70
2023-01-13T02:14:20.854Z,10.63
2023-01-13T02:17:01.300Z,12.33
2023-01-13T02:20:09.584Z,14.97
2023-01-13T02:22:52.394Z,15.90
2023-01-13T02:25:55.739Z,13.93
2023-01-13T02:29:03.686Z,19.53
2023-01-13T02:31:44.630Z,14.57
2023-01-13T02:34:18.339Z,12.03
2023-01-13T02:36:53.208Z,18.63
2023-01-13T02:39:26.879Z,23.43
2023-01-13T02:42:17.759Z,11.80
2023-01-13T02:44:59.442Z,14.50
2023-01-13T02:47:31.095Z,13.17
2023-01-13T02:50:03.716Z,16.03
2023-01-13T02:52:37.860Z,13.23
2023-01-13T02:55:10.247Z,11.10
2023-01-13T02:57:41.011Z,12.13
2023-01-13T03:00:12.504Z,13.43
2023-01-13T03:02:42.147Z,13.83
2023-01-13T03:05:15.700Z,8.20
2023-01-13T03:08:07.548Z,18.53
2023-01-13T03:10:47.789Z,18.77
2023-01-13T03:13:31.997Z,14.20
2023-01-13T03:16:09.988Z,18.23
2023-01-13T03:18:47.023Z,16.50
2023-01-13T03:21:21.477Z,10.93
2023-01-13T03:23:53.409Z,13.83
2023-01-13T03:26:28.961Z,12.10
2023-01-13T03:29:03.295Z,14.40
2023-01-13T03:31:34.888Z,9.13
2023-01-13T03:34:08.790Z,10.77
2023-01-13T03:36:40.385Z,14.90
2023-01-13T03:39:12.528Z,10.63
2023-01-13T03:41:47.395Z,10.13
2023-01-13T03:44:23.276Z,10.60
2023-01-13T03:47:00.991Z,9.07
2023-01-13T03:49:35.747Z,13.50
2023-01-13T03:52:08.724Z,12.00
2023-01-13T03:54:41.543Z,10.70
2023-01-13T03:57:13.461Z,9.47
2023-01-13T03:59:46.144Z,8.07
2023-01-13T04:02:19.717Z,8.63
2023-01-13T04:04:53.552Z,4.77
2023-01-13T04:07:33.037Z,11.20
2023-01-13T04:10:04.071Z,9.57
2023-01-13T04:12:47.922Z,13.90
2023-01-13T04:15:17.013Z,10.47
2023-01-13T04:17:45.723Z,16.23
2023-01-13T04:20:15.957Z,8.60
2023-01-13T04:22:44.143Z,11.07
2023-01-13T04:25:12.664Z,14.13
2023-01-13T04:27:41.154Z,9.77
2023-01-13T04:30:10.938Z,10.50
2023-01-13T04:32:39.403Z,19.27
2023-01-13T04:35:08.813Z,10.97
2023-01-13T04:37:38.545Z,11.43
2023-01-13T04:40:08.325Z,12.13
2023-01-13T04:42:36.651Z,13.10
2023-01-13T04:45:05.182Z,10.73
2023-01-13T04:47:33.702Z,14.00
2023-01-13T04:50:01.946Z,13.87
2023-01-13T04:52:30.139Z,13.30
2023-01-13T04:54:59.825Z,13.10
2023-01-13T04:57:28.813Z,9.77
2023-01-13T04:59:57.092Z,13.43
2023-01-13T05:02:25.306Z,15.67
2023-01-13T05:05:32.354Z,8.93
2023-01-13T05:08:00.861Z,14.23
2023-01-13T05:10:30.553Z,10.07
2023-01-13T05:13:16.768Z,10.67
2023-01-13T05:16:17.234Z,12.77
2023-01-13T05:18:45.960Z,11.57
2023-01-13T05:21:28.024Z,15.20
2023-01-13T05:24:13.673Z,10.63
2023-01-13T05:26:43.208Z,13.20
2023-01-13T05:29:11.619Z,8.37
2023-01-13T05:31:39.943Z,14.67
2023-01-13T05:34:08.145Z,11.67
2023-01-13T05:36:36.503Z,19.00
2023-01-13T05:39:05.611Z,22.53
2023-01-13T05:41:51.225Z,12.63
2023-01-13T05:44:21.148Z,17.97
2023-01-13T05:46:49.496Z,12.37
2023-01-13T05:49:17.687Z,16.60
2023-01-13T05:51:46.371Z,13.00
2023-01-13T05:54:14.764Z,25.23
2023-01-13T05:56:42.959Z,16.70
2023-01-13T05:59:11.735Z,17.97
2023-01-13T06:01:41.322Z,14.20
2023-01-13T06:04:09.596Z,16.13
2023-01-13T06:06:38.449Z,17.87
2023-01-13T06:09:06.742Z,12.50
2023-01-13T06:11:35.057Z,21.87
2023-01-13T06:14:03.767Z,18.13
2023-01-13T06:16:32.001Z,17.67
2023-01-13T06:19:01.792Z,17.27
2023-01-13T06:21:32.368Z,19.90
2023-01-13T06:24:01.429Z,23.17
2023-01-13T06:26:33.004Z,20.53
2023-01-13T06:29:01.294Z,22.27
2023-01-13T06:31:29.795Z,18.20
2023-01-13T06:34:04.122Z,25.43
2023-01-13T06:36:35.935Z,20.27
2023-01-13T06:39:06.242Z,17.07
2023-01-13T06:41:52.918Z,20.70
2023-01-13T06:44:24.031Z,24.67
2023-01-13T06:46:52.901Z,19.17
2023-01-13T06:49:22.717Z,22.63
2023-01-13T06:51:51.094Z,19.97
2023-01-13T06:54:19.374Z,25.20
2023-01-13T06:56:47.809Z,26.43
2023-01-13T06:59:16.059Z,26.13
2023-01-13T07:01:45.368Z,17.03
2023-01-13T07:04:13.988Z,29.63
2023-01-13T07:06:43.657Z,18.57
2023-01-13T07:09:12.041Z,25.03
2023-01-13T07:11:40.511Z,22.80
2023-01-13T07:14:28.568Z,13.90
2023-01-13T07:16:56.975Z,21.67
2023-01-13T07:19:25.218Z,23.30
2023-01-13T07:21:57.082Z,18.93
2023-01-13T07:24:25.451Z,19.33
2023-01-13T07:26:54.046Z,22.50
2023-01-13T07:29:22.266Z,23.50
2023-01-13T07:31:50.651Z,21.43
2023-01-13T07:34:18.990Z,29.67
2023-01-13T07:36:47.596Z,23.40
2023-01-13T07:39:17.601Z,22.20
2023-01-13T07:42:03.527Z,20.23
2023-01-13T07:44:32.226Z,29.83
2023-01-13T07:47:00.529Z,17.37
2023-01-13T07:49:28.739Z,21.77
2023-01-13T07:51:57.456Z,26.23
2023-01-13T07:54:39.687Z,17.07
2023-01-13T07:57:09.301Z,21.10
2023-01-13T07:59:37.556Z,22.37
2023-01-13T08:02:06.054Z,24.77
2023-01-13T08:04:35.416Z,30.93
2023-01-13T08:07:04.302Z,17.90
2023-01-13T08:09:33.920Z,23.23
2023-01-13T08:12:16.308Z,32.10
2023-01-13T08:14:44.708Z,26.23
2023-01-13T08:17:15.824Z,24.77
2023-01-13T08:19:44.229Z,20.33
2023-01-13T08:22:12.425Z,24.20
2023-01-13T08:24:42.191Z,21.80
2023-01-13T08:27:10.439Z,25.57
2023-01-13T08:29:38.677Z,27.63
2023-01-13T08:32:07.947Z,24.47
2023-01-13T08:34:37.633Z,21.83
2023-01-13T08:37:05.840Z,21.97
2023-01-13T08:39:36.006Z,21.10
2023-01-13T08:42:05.878Z,27.57
2023-01-13T08:44:34.456Z,21.80
2023-01-13T08:47:02.873Z,22.43
2023-01-13T08:49:31.114Z,27.83
2023-01-13T08:51:59.395Z,26.07
2023-01-13T08:54:27.824Z,35.47
2023-01-13T08:56:56.543Z,22.50
2023-01-13T08:59:26.166Z,26.13
2023-01-13T09:01:54.770Z,22.97
2023-01-13T09:04:25.156Z,28.83
2023-01-13T09:06:53.747Z,17.53
2023-01-13T09:09:22.990Z,26.03
2023-01-13T09:12:09.835Z,24.37
2023-01-13T09:14:40.644Z,20.57
2023-01-13T09:17:09.293Z,27.37
2023-01-13T09:19:37.477Z,21.53
2023-01-13T09:22:05.770Z,28.47
2023-01-13T09:24:34.251Z,22.43
2023-01-13T09:27:02.786Z,24.03
2023-01-13T09:29:31.311Z,29.17
2023-01-13T09:32:01.160Z,28.83
2023-01-13T09:34:46.873Z,31.07
2023-01-13T09:37:15.412Z,26.97
2023-01-13T09:39:43.666Z,27.33
2023-01-13T09:42:37.603Z,22.27
2023-01-13T09:45:10.056Z,19.60
2023-01-13T09:47:47.278Z,23.70
2023-01-13T09:50:37.574Z,25.00
2023-01-13T09:53:11.358Z,26.00
2023-01-13T09:55:39.587Z,26.07
2023-01-13T09:58:14.765Z,20.77
2023-01-13T10:00:47.888Z,22.90
2023-01-13T10:03:24.926Z,23.10
2023-01-13T10:06:01.188Z,25.13
2023-01-13T10:08:31.496Z,23.07
2023-01-13T10:11:22.177Z,24.13
2023-01-13T10:13:52.504Z,22.70
2023-01-13T10:16:29.610Z,24.27
2023-01-13T10:19:06.454Z,22.80
2023-01-13T10:22:09.362Z,25.90
2023-01-13T10:24:54.878Z,18.53
2023-01-13T10:27:30.533Z,28.13
2023-01-13T10:29:59.052Z,29.07
2023-01-13T10:32:27.350Z,19.40
2023-01-13T10:34:58.148Z,18.50
2023-01-13T10:37:28.962Z,16.20
2023-01-13T10:39:59.197Z,14.40
2023-01-13T10:42:27.551Z,27.97
2023-01-13T10:49:37.125Z,23.17
2023-01-13T10:52:26.416Z,25.30
2023-01-13T10:54:56.117Z,18.57
2023-01-13T10:57:26.996Z,23.33
2023-01-13T10:59:56.407Z,23.77
2023-01-13T11:02:30.685Z,19.27
2023-01-13T11:05:37.769Z,21.70
2023-01-13T11:08:18.655Z,32.80
2023-01-13T11:10:49.153Z,23.27
2023-01-13T11:13:20.684Z,23.57
2023-01-13T11:15:55.473Z,14.97
2023-01-13T11:18:32.803Z,19.60
2023-01-13T11:21:05.196Z,14.23
2023-01-13T11:23:40.992Z,21.10
2023-01-13T11:26:15.724Z,20.23
2023-01-13T11:28:51.116Z,23.60
2023-01-13T11:31:25.575Z,17.53
2023-01-13T11:34:00.263Z,16.67
2023-01-13T11:36:35.542Z,23.93
2023-01-13T11:39:20.834Z,17.43
2023-01-13T11:42:13.421Z,21.47
2023-01-13T11:44:47.853Z,17.10
2023-01-13T11:47:22.217Z,16.10
2023-01-13T11:49:50.744Z,19.60
2023-01-13T11:52:24.534Z,17.00
2023-01-13T11:55:09.433Z,16.77
2023-01-13T11:57:54.265Z,20.53
2023-01-13T12:00:32.090Z,14.73
2023-01-13T12:03:18.275Z,10.63
2023-01-13T12:05:59.838Z,18.47
2023-01-13T12:08:53.532Z,16.27
2023-01-13T12:11:32.097Z,18.17
2023-01-13T12:14:16.703Z,24.10
2023-01-13T12:16:51.100Z,17.07
2023-01-13T12:19:28.064Z,20.40
2023-01-13T12:22:12.907Z,19.17
2023-01-13T12:24:49.375Z,15.20
2023-01-13T12:27:25.126Z,17.43
2023-01-13T12:29:59.632Z,17.40
2023-01-13T12:32:34.807Z,13.67
2023-01-13T12:35:21.043Z,16.23
2023-01-13T12:37:57.863Z,20.80
2023-01-13T12:40:38.697Z,16.80
2023-01-13T12:43:37.701Z,19.43
2023-01-13T12:46:45.648Z,15.67
2023-01-13T12:49:22.670Z,19.20
2023-01-13T12:52:14.975Z,12.37
2023-01-13T12:55:03.682Z,19.10
2023-01-13T12:57:34.648Z,16.17
2023-01-13T13:00:25.643Z,18.77
2023-01-13T13:03:20.719Z,18.13
2023-01-13T13:06:05.406Z,14.47
2023-01-13T13:09:08.271Z,20.17
2023-01-13T13:12:02.362Z,16.27
2023-01-13T13:15:03.745Z,20.63
2023-01-13T13:18:01.465Z,11.00
2023-01-13T13:21:03.657Z,17.73
2023-01-13T13:24:03.452Z,16.50
2023-01-13T13:26:42.471Z,22.20
2023-01-13T13:29:41.310Z,13.20
2023-01-13T13:32:42.104Z,16.33
2023-01-13T13:35:28.576Z,14.33
2023-01-13T13:38:30.733Z,16.07
2023-01-13T13:41:16.991Z,12.70
2023-01-13T13:44:04.442Z,13.30
2023-01-13T13:46:49.249Z,19.13
2023-01-13T13:49:19.409Z,14.90
2023-01-13T13:51:59.420Z,12.87
2023-01-13T13:54:28.361Z,15.80
2023-01-13T13:56:58.079Z,12.67
2023-01-13T13:59:30.609Z,18.60
2023-01-13T14:02:03.550Z,19.83
2023-01-13T14:04:35.597Z,21.10
2023-01-13T14:07:18.382Z,16.57
2023-01-13T14:09:48.476Z,15.77
2023-01-13T14:12:21.914Z,13.97
2023-01-13T14:14:51.459Z,19.33
2023-01-13T14:17:25.611Z,19.63
2023-01-13T14:19:57.539Z,18.33
2023-01-13T14:22:27.429Z,19.93
2023-01-13T14:24:57.829Z,17.33
2023-01-13T14:27:28.406Z,14.27
2023-01-13T14:29:59.064Z,15.47
2023-01-13T14:32:34.357Z,16.87
2023-01-13T14:35:06.221Z,13.43
2023-01-13T14:37:39.642Z,20.13
2023-01-13T14:40:28.651Z,13.77
2023-01-13T14:43:00.256Z,20.00
2023-01-13T14:45:30.469Z,16.57
2023-01-13T14:48:00.879Z,19.17
2023-01-13T14:50:33.990Z,16.30
2023-01-13T14:53:05.014Z,14.83
2023-01-13T14:55:36.545Z,14.47
2023-01-13T14:58:29.388Z,13.73
2023-01-13T15:01:30.033Z,18.63
2023-01-13T15:04:25.124Z,12.17
2023-01-13T15:06:57.019Z,18.07
2023-01-13T15:09:28.863Z,12.33
2023-01-13T15:11:58.907Z,11.90
2023-01-13T15:14:31.311Z,16.17
2023-01-13T15:16:59.773Z,19.10
2023-01-13T15:19:28.034Z,18.20
2023-01-13T15:21:56.228Z,17.13
2023-01-13T15:24:26.042Z,19.50
2023-01-13T15:26:54.411Z,13.93
2023-01-13T15:29:24.318Z,10.90
2023-01-13T15:31:52.803Z,14.47
2023-01-13T15:34:21.274Z,12.63
2023-01-13T15:36:49.463Z,12.53
2023-01-13T15:39:17.676Z,19.33
2023-01-13T15:42:04.567Z,18.37
2023-01-13T15:45:01.662Z,13.70
2023-01-13T15:47:30.161Z,10.47
2023-01-13T15:49:58.419Z,11.87
2023-01-13T15:52:28.721Z,15.63
2023-01-13T15:54:57.215Z,7.97
2023-01-13T15:57:28.847Z,16.00
2023-01-13T15:59:59.570Z,14.03
2023-01-13T16:02:29.782Z,17.93
2023-01-13T16:04:58.272Z,16.47
2023-01-13T16:07:27.462Z,16.50
2023-01-13T16:09:55.928Z,16.70
2023-01-13T16:12:24.278Z,16.90
2023-01-13T16:14:56.720Z,16.90
2023-01-13T16:17:29.754Z,13.97
2023-01-13T16:19:58.385Z,13.57
2023-01-13T16:22:26.810Z,22.00
2023-01-13T16:24:55.055Z,15.00
2023-01-13T16:27:26.094Z,15.77
2023-01-13T16:29:55.680Z,15.37
2023-01-13T16:32:24.026Z,21.53
2023-01-13T16:34:52.354Z,22.60
2023-01-13T16:37:23.021Z,17.10
2023-01-13T16:39:52.153Z,17.37
2023-01-13T16:42:20.955Z,19.10
2023-01-13T16:44:49.799Z,25.20
2023-01-13T16:47:20.415Z,20.07
2023-01-13T16:49:48.879Z,14.37
2023-01-13T16:52:17.166Z,23.23
2023-01-13T16:54:45.476Z,23.63
2023-01-13T16:57:15.929Z,16.97
2023-01-13T16:59:44.119Z,18.20
2023-01-13T17:02:21.031Z,23.67
2023-01-13T17:05:27.437Z,28.33
2023-01-13T17:07:57.165Z,24.30
2023-01-13T17:10:26.204Z,28.57
2023-01-13T17:12:54.510Z,18.93
2023-01-13T17:15:23.311Z,19.53
2023-01-13T17:17:55.240Z,20.77
2023-01-13T17:20:26.285Z,23.40
2023-01-13T17:22:58.187Z,22.93
2023-01-13T17:25:27.525Z,23.40
2023-01-13T17:27:55.748Z,20.77
2023-01-13T17:30:24.021Z,19.37
2023-01-13T17:32:53.852Z,26.50
2023-01-13T17:35:24.856Z,19.30
2023-01-13T17:37:54.290Z,21.43
2023-01-13T17:40:22.919Z,32.20
2023-01-13T17:42:53.560Z,25.97
2023-01-13T17:45:21.978Z,25.93
2023-01-13T17:47:50.247Z,23.53
2023-01-13T17:50:20.011Z,26.10
2023-01-13T17:52:48.813Z,35.90
2023-01-13T17:55:17.314Z,26.03
2023-01-13T17:57:45.663Z,26.83
2023-01-13T18:00:21.952Z,30.23
2023-01-13T18:02:50.238Z,31.07
2023-01-13T18:05:20.036Z,23.67
2023-01-13T18:07:48.290Z,26.17
2023-01-13T18:10:16.843Z,24.37
2023-01-13T18:12:45.147Z,28.53
2023-01-13T18:15:13.426Z,24.37
2023-01-13T18:17:41.752Z,22.83
2023-01-13T18:20:32.855Z,23.57
2023-01-13T18:23:19.685Z,28.10
2023-01-13T18:26:05.651Z,30.70
2023-01-13T18:28:34.718Z,23.70
2023-01-13T18:31:03.154Z,30.43
2023-01-13T18:33:31.377Z,26.73
2023-01-13T18:40:38.190Z,28.13
2023-01-13T18:43:05.485Z,20.37
2023-01-13T18:45:34.294Z,29.07
2023-01-13T18:48:05.675Z,21.50
2023-01-13T18:50:35.766Z,31.93
2023-01-13T18:53:04.087Z,33.27
2023-01-13T18:55:32.586Z,25.43
2023-01-13T18:58:02.349Z,38.63
2023-01-13T19:05:15.458Z,29.90
2023-01-13T19:07:50.328Z,33.50
2023-01-13T19:10:19.413Z,33.27
2023-01-13T19:17:40.082Z,30.90
2023-01-13T19:20:09.535Z,34.80
2023-01-13T19:22:37.856Z,39.23
2023-01-13T19:25:06.999Z,28.43
2023-01-13T19:32:13.361Z,36.97
2023-01-13T19:34:44.694Z,25.40
2023-01-13T19:37:13.014Z,29.10
2023-01-13T19:39:41.491Z,36.80
2023-01-13T19:42:28.390Z,43.80
2023-01-13T19:45:14.298Z,32.33
2023-01-13T19:47:44.035Z,34.40
2023-01-13T19:50:14.844Z,38.60
2023-01-13T19:52:43.666Z,28.03
2023-01-13T19:55:12.514Z,33.47
2023-01-13T19:57:41.027Z,39.40
2023-01-13T20:00:11.525Z,30.80
2023-01-13T20:02:49.397Z,37.37
2023-01-13T20:05:22.663Z,36.20
2023-01-13T20:07:51.858Z,32.00
2023-01-13T20:10:21.851Z,32.83
2023-01-13T20:12:50.092Z,33.17
2023-01-13T20:15:18.577Z,32.90
2023-01-13T20:17:46.905Z,31.53
2023-01-13T20:20:15.997Z,30.30
2023-01-13T20:22:49.641Z,32.50
2023-01-13T20:25:19.906Z,25.70
2023-01-13T20:27:48.828Z,34.83
2023-01-13T20:30:17.488Z,30.73
2023-01-13T20:32:45.971Z,32.10
2023-01-13T20:35:14.218Z,31.73
2023-01-13T20:37:43.616Z,28.27
2023-01-13T20:40:17.117Z,29.93
2023-01-13T20:42:48.319Z,38.67
2023-01-13T20:45:20.798Z,24.23
2023-01-13T20:47:49.207Z,35.07
2023-01-13T20:50:17.890Z,31.30
2023-01-13T20:52:46.549Z,32.17
2023-01-13T20:55:16.486Z,35.17
2023-01-13T20:57:48.713Z,29.27
2023-01-13T21:00:18.112Z,32.90
2023-01-13T21:02:46.393Z,50.63
2023-01-13T21:05:14.612Z,33.77
2023-01-13T21:07:42.883Z,33.00
2023-01-13T21:10:12.432Z,34.33
2023-01-13T21:12:59.709Z,28.80
2023-01-13T21:15:28.243Z,26.93
2023-01-13T21:18:13.081Z,32.77
2023-01-13T21:20:41.633Z,32.50
2023-01-13T21:23:11.429Z,30.47
2023-01-13T21:25:42.503Z,30.23
2023-01-13T21:28:13.512Z,29.47
2023-01-13T21:30:42.053Z,33.17
2023-01-13T21:33:14.756Z,30.00
2023-01-13T21:35:43.013Z,37.30
2023-01-13T21:38:12.543Z,31.00
2023-01-13T21:40:41.156Z,27.20
2023-01-13T21:43:30.908Z,26.03
2023-01-13T21:46:31.599Z,32.67
2023-01-13T21:49:00.132Z,29.97
2023-01-13T21:51:29.153Z,38.60
2023-01-13T21:53:57.704Z,33.97
2023-01-13T21:56:26.560Z,28.60
2023-01-13T21:58:57.205Z,39.90
2023-01-13T22:01:25.848Z,26.87
2023-01-13T22:04:11.553Z,31.10
2023-01-13T22:06:40.276Z,32.13
2023-01-13T22:09:08.592Z,32.40
2023-01-13T22:11:36.814Z,25.90
2023-01-13T22:14:07.179Z,34.07
2023-01-13T22:16:37.868Z,35.27
2023-01-13T22:19:07.413Z,25.03
2023-01-13T22:21:36.480Z,29.63
2023-01-13T22:24:04.889Z,36.20
2023-01-13T22:26:33.302Z,24.37
2023-01-13T22:29:02.269Z,31.07
2023-01-13T22:31:31.936Z,35.87
2023-01-13T22:34:00.536Z,26.97
2023-01-13T22:36:28.926Z,27.97
2023-01-13T22:39:00.225Z,32.23
2023-01-13T22:41:28.681Z,30.23
2023-01-13T22:43:57.045Z,29.67
2023-01-13T22:46:25.273Z,25.37
2023-01-13T22:48:55.979Z,35.90
2023-01-13T22:51:26.058Z,37.47
2023-01-13T22:53:55.362Z,30.67
2023-01-13T22:56:25.323Z,34.60
2023-01-13T22:58:57.547Z,38.23
2023-01-13T23:01:26.953Z,40.60
2023-01-13T23:03:57.352Z,47.30
2023-01-13T23:06:27.708Z,32.20
2023-01-13T23:08:56.367Z,41.90
2023-01-13T23:11:27.204Z,39.37
2023-01-13T23:13:59.719Z,34.93
2023-01-13T23:16:29.732Z,30.47
2023-01-13T23:18:59.771Z,31.87
2023-01-13T23:21:30.330Z,30.17
2023-01-13T23:23:59.648Z,32.40
2023-01-13T23:26:28.109Z,35.20
2023-01-13T23:29:00.309Z,36.43
2023-01-13T23:31:28.548Z,21.47
2023-01-13T23:33:58.443Z,27.07
2023-01-13T23:36:28.392Z,37.97
2023-01-13T23:38:58.539Z,39.63
2023-01-13T23:41:28.401Z,43.27
2023-01-13T23:43:57.874Z,29.50
2023-01-13T23:46:27.012Z,41.20
2023-01-13T23:48:56.301Z,35.13
2023-01-13T23:51:27.659Z,39.13
2023-01-13T23:53:56.094Z,41.73
2023-01-13T23:56:27.681Z,40.67
2023-01-13T23:58:56.112Z,41.53
